createdAt,value
2022-08-09T00:00:04.911Z,0.93
2022-08-09T00:02:34.222Z,0.80
2022-08-09T00:06:12.180Z,0.40
2022-08-09T00:07:48.425Z,0.88
2022-08-09T00:10:18.223Z,1.20
2022-08-09T00:12:52.632Z,0.70
2022-08-09T00:15:26.745Z,0.65
2022-08-09T00:18:11.366Z,0.60
2022-08-09T00:20:49.839Z,0.60
2022-08-09T00:23:54.724Z,0.65
2022-08-09T00:26:07.110Z,0.80
2022-08-09T00:28:35.108Z,0.73
2022-08-09T00:31:09.353Z,0.70
2022-08-09T00:33:51.455Z,0.60
2022-08-09T00:36:19.671Z,0.60
2022-08-09T00:38:46.520Z,0.77
2022-08-09T00:44:10.359Z,0.80
2022-08-09T00:44:26.636Z,0.55
2022-08-09T00:47:05.504Z,0.60
2022-08-09T00:49:36.476Z,0.68
2022-08-09T00:52:05.943Z,0.82
2022-08-09T00:54:36.456Z,0.63
2022-08-09T00:57:10.263Z,0.50
2022-08-09T00:59:46.594Z,0.65
2022-08-09T01:02:23.360Z,0.60
2022-08-09T01:04:52.972Z,0.60
2022-08-09T01:07:38.075Z,0.70
2022-08-09T01:10:36.413Z,0.82
2022-08-09T01:13:18.112Z,0.60
2022-08-09T01:15:52.561Z,0.45
2022-08-09T01:18:29.782Z,0.73
2022-08-09T01:21:12.429Z,0.98
2022-08-09T01:24:02.382Z,0.65
2022-08-09T01:26:59.968Z,0.77
2022-08-09T01:29:55.114Z,1.10
2022-08-09T01:32:31.397Z,0.60
2022-08-09T01:35:28.856Z,0.90
2022-08-09T01:38:07.907Z,1.00
2022-08-09T01:40:52.406Z,0.50
2022-08-09T01:43:30.829Z,0.70
2022-08-09T01:45:58.950Z,1.20
2022-08-09T01:48:29.848Z,0.85
2022-08-09T01:50:59.723Z,0.60
2022-08-09T01:53:29.353Z,0.60
2022-08-09T01:56:11.309Z,0.95
2022-08-09T01:58:40.278Z,0.93
2022-08-09T02:01:08.963Z,0.85
2022-08-09T02:03:37.043Z,0.50
2022-08-09T02:06:07.346Z,0.60
2022-08-09T02:08:57.683Z,0.50
2022-08-09T02:11:42.126Z,1.17
2022-08-09T02:14:15.811Z,0.65
2022-08-09T02:16:59.548Z,0.57
2022-08-09T02:19:43.336Z,0.57
2022-08-09T02:22:51.447Z,0.80
2022-08-09T02:25:24.073Z,0.88
2022-08-09T02:28:03.882Z,0.95
2022-08-09T02:30:47.779Z,0.60
2022-08-09T02:33:23.100Z,0.70
2022-08-09T02:36:10.520Z,0.57
2022-08-09T02:38:47.903Z,0.90
2022-08-09T02:41:32.524Z,0.90
2022-08-09T02:44:10.310Z,0.65
2022-08-09T02:46:54.135Z,0.82
2022-08-09T02:49:38.424Z,0.90
2022-08-09T02:52:09.947Z,0.73
2022-08-09T02:54:54.453Z,0.73
2022-08-09T02:57:23.901Z,0.80
2022-08-09T03:00:25.408Z,0.73
2022-08-09T03:02:59.894Z,0.85
2022-08-09T03:05:28.707Z,0.88
2022-08-09T03:07:55.849Z,0.80
2022-08-09T03:10:25.574Z,0.82
2022-08-09T03:12:54.741Z,0.63
2022-08-09T03:15:23.344Z,0.82
2022-08-09T03:17:58.855Z,1.30
2022-08-09T03:20:29.536Z,0.70
2022-08-09T03:23:00.358Z,0.70
2022-08-09T03:25:58.725Z,0.80
2022-08-09T03:28:30.959Z,0.70
2022-08-09T03:30:59.345Z,1.30
2022-08-09T03:33:54.588Z,0.68
2022-08-09T03:36:18.741Z,0.93
2022-08-09T03:38:47.607Z,1.23
2022-08-09T03:41:18.397Z,1.08
2022-08-09T03:44:03.265Z,0.85
2022-08-09T03:46:34.323Z,0.80
2022-08-09T03:49:07.966Z,0.90
2022-08-09T03:51:55.184Z,0.85
2022-08-09T03:54:29.191Z,1.38
2022-08-09T03:56:58.650Z,0.85
2022-08-09T03:59:27.691Z,1.02
2022-08-09T04:02:10.590Z,0.80
2022-08-09T04:04:38.846Z,1.05
2022-08-09T04:07:06.089Z,0.90
2022-08-09T04:09:42.020Z,1.10
2022-08-09T04:12:30.966Z,1.15
2022-08-09T04:15:01.668Z,0.80
2022-08-09T04:17:29.822Z,0.88
2022-08-09T04:19:56.844Z,0.90
2022-08-09T04:22:24.307Z,0.90
2022-08-09T04:24:57.335Z,0.70
2022-08-09T04:27:27.417Z,0.70
2022-08-09T04:29:56.265Z,1.02
2022-08-09T04:32:34.070Z,1.10
2022-08-09T04:35:04.870Z,0.77
2022-08-09T04:37:45.669Z,1.00
2022-08-09T04:40:19.128Z,0.70
2022-08-09T04:42:56.723Z,0.95
2022-08-09T04:45:25.762Z,1.45
2022-08-09T04:48:02.120Z,0.70
2022-08-09T04:50:31.897Z,0.70
2022-08-09T04:53:01.802Z,0.80
2022-08-09T04:55:38.322Z,1.30
2022-08-09T04:58:09.423Z,1.00
2022-08-09T05:00:36.932Z,1.02
2022-08-09T05:03:40.255Z,1.27
2022-08-09T05:06:07.030Z,0.90
2022-08-09T05:08:34.981Z,1.05
2022-08-09T05:11:02.566Z,1.08
2022-08-09T05:13:29.274Z,1.10
2022-08-09T05:15:59.911Z,0.93
2022-08-09T05:18:50.536Z,0.90
2022-08-09T05:21:24.345Z,0.82
2022-08-09T05:24:00.403Z,0.68
2022-08-09T05:26:45.671Z,0.90
2022-08-09T05:29:21.595Z,1.00
2022-08-09T05:31:57.691Z,0.80
2022-08-09T05:34:30.641Z,0.93
2022-08-09T05:37:01.635Z,0.98
2022-08-09T05:39:36.485Z,0.90
2022-08-09T05:42:21.208Z,1.08
2022-08-09T05:44:53.135Z,1.23
2022-08-09T05:47:30.162Z,0.98
2022-08-09T05:50:30.097Z,0.93
2022-08-09T05:52:44.509Z,1.00
2022-08-09T05:55:24.074Z,1.00
2022-08-09T05:57:56.759Z,0.85
2022-08-09T06:00:32.881Z,0.95
2022-08-09T06:03:02.703Z,0.82
2022-08-09T06:05:57.299Z,1.05
2022-08-09T06:08:24.254Z,0.95
2022-08-09T06:10:53.423Z,1.00
2022-08-09T06:13:21.304Z,0.80
2022-08-09T06:15:51.504Z,0.90
2022-08-09T06:18:23.883Z,0.90
2022-08-09T06:20:54.853Z,1.10
2022-08-09T06:23:57.135Z,0.95
2022-08-09T06:26:20.398Z,0.80
2022-08-09T06:29:00.004Z,0.80
2022-08-09T06:31:31.419Z,0.82
2022-08-09T06:34:06.784Z,1.20
2022-08-09T06:36:36.961Z,1.00
2022-08-09T06:39:11.782Z,1.00
2022-08-09T06:41:39.718Z,1.13
2022-08-09T06:44:29.094Z,0.90
2022-08-09T06:46:58.393Z,0.93
2022-08-09T06:49:44.687Z,1.38
2022-08-09T06:52:15.755Z,0.93
2022-08-09T06:54:42.692Z,0.93
2022-08-09T06:57:12.000Z,0.80
2022-08-09T07:00:51.875Z,0.95
2022-08-09T07:02:29.439Z,1.10
2022-08-09T07:04:59.741Z,0.63
2022-08-09T07:08:00.029Z,0.90
2022-08-09T07:10:29.562Z,0.80
2022-08-09T07:12:58.401Z,0.80
2022-08-09T07:16:36.226Z,0.90
2022-08-09T07:18:15.137Z,1.02
2022-08-09T07:20:43.528Z,0.90
2022-08-09T07:23:19.170Z,1.00
2022-08-09T07:25:52.232Z,0.80
2022-08-09T07:28:29.116Z,1.10
2022-08-09T07:30:55.913Z,0.80
2022-08-09T07:33:25.032Z,0.80
2022-08-09T07:35:54.119Z,1.65
2022-08-09T07:38:23.499Z,2.55
2022-08-09T07:41:10.893Z,2.88
2022-08-09T07:43:50.148Z,2.83
2022-08-09T07:46:22.973Z,2.80
2022-08-09T07:48:59.504Z,2.83
2022-08-09T07:52:05.684Z,2.80
2022-08-09T07:54:15.707Z,2.97
2022-08-09T07:56:57.052Z,3.35
2022-08-09T07:59:45.911Z,3.45
2022-08-09T08:02:19.530Z,3.03
2022-08-09T08:04:48.565Z,2.90
2022-08-09T08:08:43.536Z,3.00
2022-08-09T08:10:08.516Z,2.80
2022-08-09T08:12:43.184Z,3.33
2022-08-09T08:15:14.195Z,2.63
2022-08-09T08:17:55.224Z,3.10
2022-08-09T08:20:29.216Z,3.15
2022-08-09T08:23:03.658Z,3.15
2022-08-09T08:25:44.356Z,3.22
2022-08-09T08:28:14.986Z,3.22
2022-08-09T08:30:47.482Z,3.30
2022-08-09T08:33:23.648Z,3.00
2022-08-09T08:35:58.239Z,3.22
2022-08-09T08:38:28.370Z,3.13
2022-08-09T08:40:56.151Z,3.15
2022-08-09T08:43:26.525Z,3.28
2022-08-09T08:46:10.144Z,2.90
2022-08-09T08:48:51.614Z,3.63
2022-08-09T08:51:18.809Z,3.58
2022-08-09T08:54:04.062Z,3.17
2022-08-09T08:56:36.035Z,3.70
2022-08-09T08:59:19.734Z,3.13
2022-08-09T09:01:53.423Z,3.40
2022-08-09T09:04:41.255Z,3.30
2022-08-09T09:07:15.468Z,3.25
2022-08-09T09:10:01.877Z,3.42
2022-08-09T09:12:34.206Z,3.45
2022-08-09T09:15:03.474Z,3.03
2022-08-09T09:17:48.669Z,3.20
2022-08-09T09:20:20.585Z,3.15
2022-08-09T09:22:53.414Z,3.45
2022-08-09T09:26:03.922Z,3.33
2022-08-09T09:29:02.334Z,3.20
2022-08-09T09:31:17.588Z,3.50
2022-08-09T09:34:18.203Z,3.47
2022-08-09T09:36:52.955Z,3.45
2022-08-09T09:39:54.635Z,3.13
2022-08-09T09:42:32.380Z,3.22
2022-08-09T09:45:01.282Z,2.85
2022-08-09T09:47:30.444Z,3.50
2022-08-09T09:50:14.279Z,3.47
2022-08-09T09:52:58.022Z,2.90
2022-08-09T09:55:32.175Z,2.97
2022-08-09T09:58:17.376Z,3.30
2022-08-09T10:00:58.836Z,4.85
2022-08-09T10:03:57.545Z,3.33
2022-08-09T10:06:32.192Z,3.05
2022-08-09T10:09:21.638Z,3.30
2022-08-09T10:12:07.567Z,3.03
2022-08-09T10:14:39.539Z,3.03
2022-08-09T10:17:24.352Z,3.08
2022-08-09T10:20:00.038Z,3.08
2022-08-09T10:22:35.354Z,2.90
2022-08-09T10:25:11.849Z,2.97
2022-08-09T10:27:55.897Z,3.10
2022-08-09T10:33:29.766Z,2.85
2022-08-09T10:36:11.465Z,3.20
2022-08-09T10:38:57.132Z,3.00
2022-08-09T10:41:29.174Z,2.65
2022-08-09T10:44:01.043Z,2.92
2022-08-09T10:46:34.270Z,2.83
2022-08-09T10:49:20.395Z,2.50
2022-08-09T10:52:00.237Z,2.60
2022-08-09T10:54:29.845Z,2.45
2022-08-09T10:57:10.792Z,2.72
2022-08-09T10:59:55.567Z,2.70
2022-08-09T11:03:46.751Z,2.60
2022-08-09T11:05:30.123Z,2.90
2022-08-09T11:08:17.517Z,2.63
2022-08-09T11:11:00.893Z,2.72
2022-08-09T11:13:51.477Z,2.70
2022-08-09T11:16:39.175Z,3.30
2022-08-09T11:19:10.313Z,2.70
2022-08-09T11:21:57.221Z,2.80
2022-08-09T11:25:09.153Z,2.80
2022-08-09T11:28:03.824Z,2.70
2022-08-09T11:30:34.587Z,3.13
2022-08-09T11:33:19.645Z,2.60
2022-08-09T11:35:54.581Z,2.78
2022-08-09T11:38:32.258Z,3.08
2022-08-09T11:41:38.130Z,2.80
2022-08-09T11:44:07.700Z,2.58
2022-08-09T11:46:59.619Z,2.40
2022-08-09T11:50:56.530Z,5.35
2022-08-09T11:53:16.484Z,2.90
2022-08-09T11:55:52.351Z,2.90
2022-08-09T11:58:30.153Z,2.80
2022-08-09T12:01:08.566Z,2.72
2022-08-09T12:03:57.370Z,2.85
2022-08-09T12:06:32.003Z,2.95
2022-08-09T12:09:01.188Z,2.50
2022-08-09T12:11:33.309Z,2.67
2022-08-09T12:14:12.422Z,2.50
2022-08-09T12:16:56.470Z,2.60
2022-08-09T12:19:30.697Z,2.47
2022-08-09T12:22:02.983Z,2.60
2022-08-09T12:24:30.882Z,2.60
2022-08-09T12:29:11.663Z,6.93
2022-08-09T12:30:01.458Z,4.28
2022-08-09T12:32:43.273Z,3.55
2022-08-09T12:35:13.403Z,3.35
2022-08-09T12:37:50.316Z,2.35
2022-08-09T12:40:20.519Z,2.40
2022-08-09T12:42:50.546Z,2.72
2022-08-09T12:45:35.018Z,4.85
2022-08-09T12:48:20.035Z,5.50
2022-08-09T12:50:57.890Z,3.20
2022-08-09T12:53:41.045Z,2.30
2022-08-09T12:56:37.027Z,2.38
2022-08-09T12:59:11.771Z,5.13
2022-08-09T13:01:42.771Z,2.00
2022-08-09T13:04:36.826Z,2.50
2022-08-09T13:07:50.721Z,2.33
2022-08-09T13:10:15.834Z,2.20
2022-08-09T13:13:08.726Z,6.47
2022-08-09T13:15:36.113Z,3.00
2022-08-09T13:18:05.727Z,2.17
2022-08-09T13:20:37.439Z,2.30
2022-08-09T13:24:16.029Z,2.20
2022-08-09T13:26:04.344Z,5.63
2022-08-09T13:28:35.857Z,5.68
2022-08-09T13:32:12.486Z,4.50
2022-08-09T13:33:55.167Z,3.75
2022-08-09T13:36:38.980Z,2.83
2022-08-09T13:41:19.352Z,2.20
2022-08-09T13:42:12.408Z,2.40
2022-08-09T13:44:45.675Z,5.50
2022-08-09T13:47:33.930Z,3.20
2022-08-09T13:50:18.166Z,2.08
2022-08-09T13:52:56.767Z,2.90
2022-08-09T13:55:29.035Z,2.20
2022-08-09T13:57:58.440Z,2.30
2022-08-09T14:00:28.871Z,2.20
2022-08-09T14:03:03.635Z,3.47
2022-08-09T14:05:56.630Z,2.53
2022-08-09T14:08:28.374Z,4.10
2022-08-09T14:10:56.228Z,2.40
2022-08-09T14:14:15.097Z,4.07
2022-08-09T14:16:14.934Z,4.20
2022-08-09T14:18:45.932Z,3.10
2022-08-09T14:21:22.239Z,3.05
2022-08-09T14:23:54.591Z,2.83
2022-08-09T14:26:25.210Z,2.80
2022-08-09T14:28:52.090Z,2.40
2022-08-09T14:31:23.682Z,2.30
2022-08-09T14:34:08.295Z,2.63
2022-08-09T14:36:39.849Z,4.38
2022-08-09T14:39:10.247Z,2.65
2022-08-09T14:41:41.695Z,2.83
2022-08-09T14:44:09.649Z,2.70
2022-08-09T14:47:01.474Z,2.00
2022-08-09T14:49:26.936Z,3.03
2022-08-09T14:51:58.854Z,2.50
2022-08-09T14:54:28.123Z,2.70
2022-08-09T14:56:58.615Z,2.30
2022-08-09T14:59:26.940Z,2.60
2022-08-09T15:01:54.159Z,2.25
2022-08-09T15:04:23.237Z,2.58
2022-08-09T15:06:51.390Z,2.30
2022-08-09T15:10:03.796Z,2.50
2022-08-09T15:12:08.267Z,2.40
2022-08-09T15:14:38.839Z,2.20
2022-08-09T15:17:09.611Z,2.22
2022-08-09T15:19:37.015Z,2.60
2022-08-09T15:22:21.993Z,2.53
2022-08-09T15:24:52.657Z,2.58
2022-08-09T15:27:19.344Z,2.50
2022-08-09T15:30:55.391Z,2.40
2022-08-09T15:32:33.764Z,2.25
2022-08-09T15:35:01.324Z,2.38
2022-08-09T15:37:36.988Z,2.70
2022-08-09T15:40:11.654Z,2.42
2022-08-09T15:42:39.635Z,2.50
2022-08-09T15:45:13.865Z,2.72
2022-08-09T15:47:51.492Z,2.40
2022-08-09T15:50:19.728Z,2.30
2022-08-09T15:52:55.028Z,2.75
2022-08-09T15:55:58.978Z,2.40
2022-08-09T15:58:27.180Z,2.40
2022-08-09T16:00:54.121Z,2.40
2022-08-09T16:03:29.652Z,2.42
2022-08-09T16:06:07.053Z,4.40
2022-08-09T16:08:56.059Z,2.90
2022-08-09T16:11:22.674Z,2.60
2022-08-09T16:14:06.016Z,2.28
2022-08-09T16:16:39.073Z,2.70
2022-08-09T16:19:10.277Z,2.95
2022-08-09T16:21:41.058Z,2.50
2022-08-09T16:24:20.097Z,2.40
2022-08-09T16:26:56.705Z,2.53
2022-08-09T16:29:37.411Z,2.47
2022-08-09T16:32:33.452Z,2.65
2022-08-09T16:34:58.408Z,2.92
2022-08-09T16:37:55.202Z,2.50
2022-08-09T16:40:14.051Z,2.40
2022-08-09T16:42:47.944Z,2.70
2022-08-09T16:45:19.580Z,2.95
2022-08-09T16:48:40.829Z,3.00
2022-08-09T16:50:35.314Z,2.80
2022-08-09T16:53:05.694Z,2.83
2022-08-09T16:55:58.570Z,2.97
2022-08-09T16:58:20.967Z,3.17
2022-08-09T17:00:48.555Z,2.80
2022-08-09T17:03:21.643Z,3.20
2022-08-09T17:06:07.646Z,2.95
2022-08-09T17:08:45.641Z,3.22
2022-08-09T17:11:39.949Z,3.22
2022-08-09T17:14:26.080Z,2.78
2022-08-09T17:17:02.179Z,2.22
2022-08-09T17:19:47.686Z,3.30
2022-08-09T17:22:30.928Z,2.80
2022-08-09T17:25:11.560Z,2.70
2022-08-09T17:27:49.212Z,3.05
2022-08-09T17:30:21.676Z,2.60
2022-08-09T17:32:52.795Z,2.70
2022-08-09T17:35:19.399Z,4.47
2022-08-09T17:38:11.820Z,5.78
2022-08-09T17:40:35.172Z,2.97
2022-08-09T17:43:33.053Z,2.95
2022-08-09T17:46:03.801Z,2.60
2022-08-09T17:48:38.361Z,3.58
2022-08-09T17:51:17.396Z,2.67
2022-08-09T17:53:52.432Z,2.50
2022-08-09T17:56:27.717Z,2.60
2022-08-09T17:59:01.117Z,2.80
2022-08-09T18:02:03.814Z,3.10
2022-08-09T18:04:17.885Z,3.17
2022-08-09T18:06:54.526Z,2.90
2022-08-09T18:09:22.826Z,3.00
2022-08-09T18:12:15.304Z,2.63
2022-08-09T18:14:49.720Z,2.42
2022-08-09T18:17:19.025Z,2.58
2022-08-09T18:20:59.139Z,2.33
2022-08-09T18:22:41.167Z,2.35
2022-08-09T18:25:17.972Z,2.35
2022-08-09T18:27:59.762Z,2.80
2022-08-09T18:30:34.597Z,2.50
2022-08-09T18:33:12.956Z,2.70
2022-08-09T18:35:58.321Z,2.65
2022-08-09T18:38:26.455Z,2.50
2022-08-09T18:40:55.289Z,3.15
2022-08-09T18:43:23.459Z,2.75
2022-08-09T18:46:46.028Z,2.97
2022-08-09T18:48:36.820Z,3.17
2022-08-09T18:51:03.391Z,3.20
2022-08-09T18:53:56.555Z,2.85
2022-08-09T18:56:17.015Z,2.88
2022-08-09T18:58:46.505Z,3.20
2022-08-09T19:01:18.250Z,3.88
2022-08-09T19:04:00.971Z,3.70
2022-08-09T19:06:32.889Z,2.95
2022-08-09T19:09:03.418Z,2.65
2022-08-09T19:11:37.495Z,2.60
2022-08-09T19:14:05.349Z,2.53
2022-08-09T19:16:36.228Z,3.28
2022-08-09T19:19:19.292Z,2.65
2022-08-09T19:22:06.492Z,2.88
2022-08-09T19:25:07.466Z,2.80
2022-08-09T19:27:22.241Z,3.30
2022-08-09T19:30:21.001Z,3.95
2022-08-09T19:32:36.752Z,2.92
2022-08-09T19:35:05.041Z,2.90
2022-08-09T19:37:40.948Z,3.72
2022-08-09T19:40:19.616Z,2.83
2022-08-09T19:42:48.991Z,3.30
2022-08-09T19:45:16.647Z,2.90
2022-08-09T19:47:46.518Z,2.55
2022-08-09T19:50:51.534Z,2.78
2022-08-09T19:53:04.399Z,2.40
2022-08-09T19:56:02.225Z,3.00
2022-08-09T19:58:18.083Z,2.53
2022-08-09T20:00:57.264Z,2.65
2022-08-09T20:04:17.216Z,2.28
2022-08-09T20:06:23.490Z,2.60
2022-08-09T20:08:56.912Z,2.65
2022-08-09T20:11:25.775Z,3.00
2022-08-09T20:13:54.350Z,2.67
2022-08-09T20:16:34.928Z,2.90
2022-08-09T20:19:42.555Z,3.03
2022-08-09T20:21:56.195Z,2.95
2022-08-09T20:24:29.609Z,2.72
2022-08-09T20:27:05.790Z,2.67
2022-08-09T20:29:39.042Z,3.08
2022-08-09T20:32:30.641Z,3.20
2022-08-09T20:34:54.701Z,3.28
2022-08-09T20:37:22.601Z,3.17
2022-08-09T20:40:18.016Z,3.20
2022-08-09T20:42:37.781Z,2.80
2022-08-09T20:46:00.402Z,2.67
2022-08-09T20:47:52.725Z,2.60
2022-08-09T20:50:47.843Z,2.60
2022-08-09T20:53:34.924Z,2.53
2022-08-09T20:56:02.106Z,2.50
2022-08-09T20:58:32.852Z,2.80
2022-08-09T21:01:33.675Z,2.80
2022-08-09T21:05:49.013Z,2.50
2022-08-09T21:06:42.490Z,2.75
2022-08-09T21:09:11.654Z,2.40
2022-08-09T21:14:27.156Z,2.70
2022-08-09T21:16:57.970Z,2.53
2022-08-09T21:20:17.098Z,2.70
2022-08-09T21:22:35.776Z,2.72
2022-08-09T21:25:18.669Z,2.42
2022-08-09T21:27:52.242Z,2.65
2022-08-09T21:30:22.283Z,2.72
2022-08-09T21:32:50.406Z,2.45
2022-08-09T21:35:17.620Z,2.50
2022-08-09T21:37:59.387Z,2.50
2022-08-09T21:40:30.638Z,3.03
2022-08-09T21:43:03.511Z,3.00
2022-08-09T21:45:39.189Z,2.60
2022-08-09T21:48:07.014Z,2.40
2022-08-09T21:50:36.186Z,2.08
2022-08-09T21:53:23.928Z,2.67
2022-08-09T21:55:54.325Z,2.78
2022-08-09T21:58:21.087Z,2.35
2022-08-09T22:00:55.891Z,2.50
2022-08-09T22:03:25.603Z,2.10
2022-08-09T22:05:54.188Z,2.50
2022-08-09T22:08:23.021Z,2.33
2022-08-09T22:11:49.137Z,2.05
2022-08-09T22:13:39.405Z,2.40
2022-08-09T22:16:10.623Z,3.00
2022-08-09T22:18:52.164Z,2.85
2022-08-09T22:21:22.407Z,2.60
2022-08-09T22:24:01.727Z,2.80
2022-08-09T22:26:35.341Z,2.47
2022-08-09T22:29:09.169Z,3.17
2022-08-09T22:31:38.518Z,2.60
2022-08-09T22:34:16.839Z,2.42
2022-08-09T22:36:47.105Z,2.60
2022-08-09T22:39:20.797Z,2.47
2022-08-09T22:42:03.396Z,2.63
2022-08-09T22:44:32.827Z,2.50
2022-08-09T22:48:14.693Z,2.70
2022-08-09T22:49:47.675Z,4.05
2022-08-09T22:52:21.725Z,1.00
2022-08-09T22:54:51.038Z,1.05
2022-08-09T22:57:18.011Z,5.65
2022-08-09T22:59:56.329Z,1.20
2022-08-09T23:02:25.154Z,1.05
2022-08-09T23:04:53.817Z,3.53
2022-08-09T23:08:22.916Z,1.83
2022-08-09T23:10:31.874Z,1.48
2022-08-09T23:12:58.850Z,1.88
2022-08-09T23:15:26.072Z,1.00
2022-08-09T23:17:52.677Z,0.93
2022-08-09T23:20:19.353Z,1.90
2022-08-09T23:22:45.954Z,4.25
2022-08-09T23:25:12.649Z,2.75
2022-08-09T23:28:09.498Z,1.52
2022-08-09T23:30:25.803Z,1.00
2022-08-09T23:32:55.439Z,0.88
2022-08-09T23:35:22.744Z,1.30
2022-08-09T23:37:49.284Z,5.25
2022-08-09T23:40:17.097Z,5.07
2022-08-09T23:42:43.718Z,5.03
2022-08-09T23:45:11.169Z,1.10
2022-08-09T23:47:57.717Z,4.10
2022-08-09T23:50:24.334Z,6.32
2022-08-09T23:52:51.054Z,4.30
2022-08-09T23:55:17.816Z,3.05
2022-08-09T23:58:01.147Z,1.08
